Time;durP1;ratioP1;P1;durP2;ratioP2;P2;SDS_P1;SDS_P2;PMS_P1;PMS_P2;Temp;Humidity;BMP_temperature;BMP_pressure;BME280_temperature;BME280_humidity;BME280_pressure;Samples;Min_cycle;Max_cycle;Signal;HPM_P1;HPM_P2
2022/10/16 00:01:35;;;;;;;2.47;2.27;;;17.60;99.90;;;;;;5022807;28;20549;-79
2022/10/16 00:04:03;;;;;;;4.80;2.43;;;17.60;99.90;;;;;;5026656;28;20498;-78
2022/10/16 00:06:31;;;;;;;2.80;2.30;;;17.60;99.90;;;;;;5029067;28;20467;-82
2022/10/16 00:08:59;;;;;;;2.40;2.20;;;17.60;99.90;;;;;;5026277;28;20471;-82
2022/10/16 00:11:28;;;;;;;2.53;2.13;;;17.60;99.90;;;;;;5022198;28;20554;-81
2022/10/16 00:13:57;;;;;;;2.20;2.00;;;17.60;99.90;;;;;;5024441;28;20478;-78
2022/10/16 00:16:26;;;;;;;2.30;2.20;;;17.60;99.90;;;;;;5028282;28;20534;-78
2022/10/16 00:18:53;;;;;;;2.23;2.03;;;17.60;99.90;;;;;;5028434;28;20562;-79
2022/10/16 00:21:23;;;;;;;2.13;1.90;;;17.60;99.90;;;;;;5029294;28;20553;-79
2022/10/16 00:23:52;;;;;;;2.10;1.80;;;17.60;99.90;;;;;;5028423;28;20954;-79
2022/10/16 00:26:22;;;;;;;2.30;2.07;;;17.60;99.90;;;;;;5022707;28;20471;-79
2022/10/16 00:28:51;;;;;;;2.30;2.10;;;17.60;99.90;;;;;;5021426;28;20470;-79
2022/10/16 00:31:21;;;;;;;2.50;1.90;;;17.60;99.90;;;;;;5026975;28;20665;-81
2022/10/16 00:33:48;;;;;;;2.20;2.10;;;17.60;99.90;;;;;;5030097;28;20810;-81
2022/10/16 00:36:17;;;;;;;2.10;1.97;;;17.60;99.90;;;;;;5026922;28;20476;-80
2022/10/16 00:38:44;;;;;;;10.23;3.97;;;17.60;99.90;;;;;;5029252;28;20871;-81
2022/10/16 00:41:14;;;;;;;5.40;4.20;;;17.60;99.90;;;;;;5025049;28;20479;-80
2022/10/16 00:43:45;;;;;;;3.90;3.60;;;17.60;99.90;;;;;;5021636;28;20848;-80
2022/10/16 00:46:18;;;;;;;2.17;2.07;;;17.60;99.90;;;;;;5025398;28;20826;-78
2022/10/16 00:48:49;;;;;;;2.07;1.97;;;17.60;99.90;;;;;;5032627;28;20494;-81
2022/10/16 00:51:18;;;;;;;2.27;2.07;;;17.60;99.90;;;;;;5023999;28;20476;-80
2022/10/16 00:53:46;;;;;;;2.03;1.83;;;17.50;99.90;;;;;;5025652;28;20489;-80
2022/10/16 00:56:13;;;;;;;3.70;1.93;;;17.60;99.90;;;;;;5023459;28;21020;-82
2022/10/16 00:58:41;;;;;;;1.60;1.50;;;17.60;99.90;;;;;;5027930;28;20482;-81
2022/10/16 01:01:08;;;;;;;2.23;1.90;;;17.60;99.90;;;;;;5036271;28;20470;-80
2022/10/16 01:03:37;;;;;;;3.70;1.90;;;17.60;99.90;;;;;;5026363;28;20467;-78
2022/10/16 01:06:15;;;;;;;2.03;1.83;;;17.50;99.90;;;;;;5022954;28;20504;-81
2022/10/16 01:08:50;;;;;;;2.40;2.20;;;17.60;99.90;;;;;;5023034;28;20952;-78
2022/10/16 01:11:22;;;;;;;1.80;1.70;;;17.50;99.90;;;;;;5021644;28;20554;-78
2022/10/16 01:13:56;;;;;;;1.70;1.60;;;17.50;99.90;;;;;;5023847;28;20491;-79
2022/10/16 01:16:31;;;;;;;2.67;1.83;;;17.60;99.90;;;;;;5028435;28;20498;-78
2022/10/16 01:19:10;;;;;;;2.00;1.63;;;17.50;99.90;;;;;;5034013;28;20569;-78
2022/10/16 01:21:42;;;;;;;1.70;1.60;;;17.50;99.90;;;;;;5034356;28;20483;-78
2022/10/16 01:24:18;;;;;;;2.37;1.80;;;17.50;99.90;;;;;;5040630;28;20531;-82
2022/10/16 01:27:19;;;;;;;1.83;1.73;;;17.50;99.90;;;;;;5020807;28;20486;-81
2022/10/16 01:29:52;;;;;;;1.90;1.80;;;17.50;99.90;;;;;;5020897;28;20475;-79
2022/10/16 01:32:33;;;;;;;2.03;1.93;;;17.60;99.90;;;;;;5021865;28;21038;-79
2022/10/16 01:35:04;;;;;;;1.43;1.33;;;17.50;99.90;;;;;;5019389;28;20941;-79
2022/10/16 01:37:37;;;;;;;2.97;2.00;;;17.60;99.90;;;;;;5028140;28;20486;-79
2022/10/16 01:40:10;;;;;;;1.80;1.70;;;17.60;99.90;;;;;;5022256;28;20534;-79
2022/10/16 01:42:41;;;;;;;2.03;1.53;;;17.50;99.90;;;;;;5020651;28;20468;-79
2022/10/16 01:45:11;;;;;;;3.23;1.93;;;17.50;99.90;;;;;;5023912;28;20456;-79
2022/10/16 01:47:40;;;;;;;1.60;1.50;;;17.50;99.90;;;;;;5027335;28;20806;-79
2022/10/16 01:50:09;;;;;;;1.77;1.67;;;17.50;99.90;;;;;;5023999;28;20895;-79
2022/10/16 01:52:38;;;;;;;1.70;1.60;;;17.50;99.90;;;;;;5020510;28;20545;-79
2022/10/16 01:55:08;;;;;;;1.60;1.23;;;17.50;99.90;;;;;;5022519;28;20475;-80
2022/10/16 01:57:40;;;;;;;2.03;1.60;;;17.50;99.90;;;;;;5027075;28;20474;-80
2022/10/16 02:00:12;;;;;;;2.23;2.00;;;17.60;99.90;;;;;;5026501;28;20497;-80
2022/10/16 02:02:43;;;;;;;2.00;1.83;;;17.50;99.90;;;;;;5019690;28;20980;-81
2022/10/16 02:05:17;;;;;;;1.80;1.70;;;17.50;99.90;;;;;;5020399;28;20537;-82
2022/10/16 02:07:44;;;;;;;1.57;1.47;;;17.50;99.90;;;;;;5020634;28;20485;-80
2022/10/16 02:10:12;;;;;;;2.03;1.83;;;17.50;99.90;;;;;;5020246;28;20492;-78
2022/10/16 02:12:43;;;;;;;1.90;1.77;;;17.50;99.90;;;;;;5033226;28;20562;-80
2022/10/16 02:15:10;;;;;;;1.90;1.67;;;17.50;99.90;;;;;;5019561;28;20987;-82
2022/10/16 02:17:37;;;;;;;2.47;2.27;;;17.60;99.90;;;;;;5033723;28;20561;-81
2022/10/16 02:20:06;;;;;;;1.90;1.80;;;17.50;99.90;;;;;;5032506;28;20721;-79
2022/10/16 02:22:36;;;;;;;2.03;1.87;;;17.60;99.90;;;;;;5033653;28;20480;-82
2022/10/16 02:25:07;;;;;;;1.90;1.77;;;17.50;99.90;;;;;;5019301;28;20472;-82
2022/10/16 02:27:39;;;;;;;2.13;1.50;;;17.60;99.90;;;;;;5020133;28;20476;-79
2022/10/16 02:30:14;;;;;;;2.07;1.77;;;17.60;99.90;;;;;;5020794;28;20495;-81
2022/10/16 02:32:44;;;;;;;2.00;1.90;;;17.60;99.90;;;;;;5019579;28;20557;-79
2022/10/16 02:35:12;;;;;;;3.50;1.67;;;17.60;99.90;;;;;;5024085;28;20787;-82
2022/10/16 02:37:41;;;;;;;1.97;1.87;;;17.60;99.90;;;;;;5026144;28;20491;-82
2022/10/16 02:40:10;;;;;;;1.70;1.60;;;17.60;99.90;;;;;;5022167;28;20867;-81
2022/10/16 02:42:40;;;;;;;2.40;1.80;;;17.60;99.90;;;;;;5030061;28;20480;-79
2022/10/16 02:45:10;;;;;;;1.60;1.50;;;17.60;99.90;;;;;;5022998;28;20493;-79
2022/10/16 02:47:37;;;;;;;1.70;1.60;;;17.60;99.90;;;;;;5019463;28;20471;-79
2022/10/16 02:50:05;;;;;;;1.50;1.40;;;17.60;99.90;;;;;;5022387;28;20499;-79
2022/10/16 02:52:32;;;;;;;2.37;1.37;;;17.70;99.90;;;;;;5026615;28;20543;-79
2022/10/16 02:54:59;;;;;;;2.80;2.60;;;17.70;99.90;;;;;;5023638;28;20491;-78
2022/10/16 02:57:26;;;;;;;2.73;1.90;;;17.70;99.90;;;;;;5020002;28;20464;-81
2022/10/16 02:59:53;;;;;;;1.97;1.77;;;17.70;99.90;;;;;;5021746;28;20507;-81
2022/10/16 03:02:22;;;;;;;1.80;1.70;;;17.70;99.90;;;;;;5026774;28;20488;-78
2022/10/16 03:04:49;;;;;;;1.70;1.60;;;17.80;99.90;;;;;;5024359;28;21039;-81
2022/10/16 03:07:16;;;;;;;3.03;1.73;;;17.80;99.90;;;;;;5018565;28;20461;-78
2022/10/16 03:09:43;;;;;;;1.60;1.50;;;17.80;99.90;;;;;;5020415;28;20495;-78
2022/10/16 03:12:11;;;;;;;1.90;1.70;;;17.80;99.90;;;;;;5030852;28;20543;-79
2022/10/16 03:14:39;;;;;;;1.87;1.77;;;17.80;99.90;;;;;;5032692;28;20499;-77
2022/10/16 03:17:06;;;;;;;1.90;1.80;;;17.80;99.90;;;;;;5021837;28;20478;-79
2022/10/16 03:19:35;;;;;;;1.80;1.70;;;17.80;99.90;;;;;;5043066;28;20549;-81
2022/10/16 03:22:02;;;;;;;1.30;1.20;;;17.80;99.90;;;;;;5042750;28;20477;-82
2022/10/16 03:24:29;;;;;;;1.70;1.60;;;17.80;99.90;;;;;;5046343;28;20480;-80
2022/10/16 03:26:56;;;;;;;1.90;1.80;;;17.80;99.90;;;;;;5033252;28;20553;-81
2022/10/16 03:29:23;;;;;;;1.50;1.40;;;17.80;99.90;;;;;;5033078;28;20467;-81
2022/10/16 03:31:50;;;;;;;2.00;1.90;;;17.80;99.90;;;;;;5030731;28;20577;-79
2022/10/16 03:34:17;;;;;;;1.53;1.43;;;17.80;99.90;;;;;;5021621;28;20466;-79
2022/10/16 03:36:45;;;;;;;1.70;1.60;;;17.80;99.90;;;;;;5019245;28;20563;-79
2022/10/16 03:39:12;;;;;;;1.83;1.30;;;17.70;99.90;;;;;;5023164;28;20510;-81
2022/10/16 03:41:39;;;;;;;1.73;1.63;;;17.70;99.90;;;;;;5025488;28;20475;-81
2022/10/16 03:44:06;;;;;;;1.70;1.60;;;17.70;99.90;;;;;;5022178;28;21053;-81
2022/10/16 03:46:33;;;;;;;1.53;1.40;;;17.70;99.90;;;;;;5019561;28;20479;-78
2022/10/16 03:49:01;;;;;;;2.20;2.00;;;17.70;99.90;;;;;;5025463;28;20518;-78
2022/10/16 03:51:29;;;;;;;2.03;1.93;;;17.70;99.90;;;;;;5029570;28;20475;-82
2022/10/16 03:53:57;;;;;;;1.53;1.43;;;17.60;99.90;;;;;;5026854;28;20552;-81
2022/10/16 03:56:25;;;;;;;1.60;1.50;;;17.60;99.90;;;;;;5032691;28;20856;-82
2022/10/16 03:58:52;;;;;;;2.20;2.10;;;17.60;99.90;;;;;;5029163;28;20476;-79
2022/10/16 04:01:19;;;;;;;1.57;1.47;;;17.60;99.90;;;;;;5028762;28;20490;-79
2022/10/16 04:03:46;;;;;;;1.77;1.67;;;17.60;99.90;;;;;;5028569;28;20996;-79
2022/10/16 04:06:13;;;;;;;1.80;1.70;;;17.50;99.90;;;;;;5029910;28;20471;-79
2022/10/16 04:08:43;;;;;;;1.87;1.77;;;17.60;99.90;;;;;;5028160;28;20541;-79
2022/10/16 04:11:11;;;;;;;1.90;1.80;;;17.50;99.90;;;;;;5028039;28;20562;-79
2022/10/16 04:13:38;;;;;;;1.73;1.63;;;17.50;99.90;;;;;;5024305;28;20566;-81
2022/10/16 04:16:05;;;;;;;1.77;1.67;;;17.50;99.90;;;;;;5022451;28;20487;-78
2022/10/16 04:18:32;;;;;;;1.90;1.80;;;17.50;99.90;;;;;;5029404;28;20540;-81
2022/10/16 04:21:04;;;;;;;2.10;1.90;;;17.40;99.90;;;;;;5033415;28;20541;-80
2022/10/16 04:23:31;;;;;;;2.00;1.90;;;17.40;99.90;;;;;;5025255;28;20552;-81
2022/10/16 04:25:58;;;;;;;1.70;1.60;;;17.40;99.90;;;;;;5033408;28;20484;-80
2022/10/16 04:28:26;;;;;;;1.90;1.80;;;17.40;99.90;;;;;;5025354;28;20544;-81
2022/10/16 04:30:53;;;;;;;1.80;1.70;;;17.40;99.90;;;;;;5023896;28;20481;-81
2022/10/16 04:33:20;;;;;;;1.97;1.87;;;17.40;99.90;;;;;;5029738;28;20480;-81
2022/10/16 04:35:48;;;;;;;1.83;1.73;;;17.40;99.90;;;;;;5038267;28;20502;-79
2022/10/16 04:38:15;;;;;;;2.00;1.70;;;17.30;99.90;;;;;;5027483;28;20475;-78
2022/10/16 04:40:43;;;;;;;1.50;1.40;;;17.30;99.90;;;;;;5027762;28;20489;-78
2022/10/16 04:43:10;;;;;;;1.70;1.60;;;17.30;99.90;;;;;;5026364;28;20511;-78
2022/10/16 04:45:38;;;;;;;1.53;1.43;;;17.30;99.90;;;;;;5031942;28;20464;-79
2022/10/16 04:48:05;;;;;;;1.80;1.70;;;17.30;99.90;;;;;;5025542;28;20798;-79
2022/10/16 04:50:32;;;;;;;1.67;1.57;;;17.30;99.90;;;;;;5021569;28;20562;-79
2022/10/16 04:52:59;;;;;;;2.13;1.93;;;17.30;99.90;;;;;;5025034;28;20503;-78
2022/10/16 04:55:26;;;;;;;2.03;1.80;;;17.30;99.90;;;;;;5024897;28;20478;-79
2022/10/16 04:57:53;;;;;;;2.00;1.33;;;17.30;99.90;;;;;;5027793;28;20497;-81
2022/10/16 05:00:22;;;;;;;2.37;2.20;;;17.30;99.90;;;;;;5020897;28;20489;-79
2022/10/16 05:02:51;;;;;;;1.70;1.60;;;17.20;99.90;;;;;;5021564;28;21089;-79
2022/10/16 05:05:19;;;;;;;1.73;1.63;;;17.20;99.90;;;;;;5026822;28;20503;-78
2022/10/16 05:07:46;;;;;;;2.43;1.60;;;17.20;99.90;;;;;;5028654;28;20470;-78
2022/10/16 05:10:13;;;;;;;1.63;1.53;;;17.20;99.90;;;;;;5023689;28;20970;-81
2022/10/16 05:12:40;;;;;;;1.73;1.63;;;17.20;99.90;;;;;;5023423;28;20478;-79
2022/10/16 05:15:08;;;;;;;2.13;1.93;;;17.20;99.90;;;;;;5026650;28;21039;-78
2022/10/16 05:17:35;;;;;;;1.80;1.70;;;17.20;99.90;;;;;;5030310;28;20495;-79
2022/10/16 05:20:07;;;;;;;1.50;1.40;;;17.10;99.90;;;;;;5017845;28;20467;-80
2022/10/16 05:22:35;;;;;;;1.90;1.80;;;17.10;99.90;;;;;;5017320;28;20580;-80
2022/10/16 05:25:05;;;;;;;2.13;1.70;;;17.10;99.90;;;;;;5020890;28;20476;-76
2022/10/16 05:27:32;;;;;;;2.27;2.17;;;17.10;99.90;;;;;;5020271;28;20472;-80
2022/10/16 05:30:01;;;;;;;1.80;1.70;;;17.10;99.90;;;;;;5021641;28;21036;-80
2022/10/16 05:32:28;;;;;;;2.20;2.10;;;17.10;99.90;;;;;;5019250;28;20479;-80
2022/10/16 05:34:55;;;;;;;2.10;2.00;;;17.10;99.90;;;;;;5019478;28;20969;-80
2022/10/16 05:37:23;;;;;;;1.80;1.70;;;17.10;99.90;;;;;;5017814;28;20526;-80
2022/10/16 05:39:50;;;;;;;2.50;2.37;;;17.10;99.90;;;;;;5014489;28;20501;-82
2022/10/16 05:42:17;;;;;;;2.03;1.93;;;17.20;99.90;;;;;;5013857;28;20533;-81
2022/10/16 05:44:44;;;;;;;2.27;2.10;;;17.20;99.90;;;;;;5014681;28;20498;-81
2022/10/16 05:47:13;;;;;;;2.27;2.07;;;17.20;99.90;;;;;;5014718;28;20958;-79
2022/10/16 05:49:40;;;;;;;2.53;2.33;;;17.20;99.90;;;;;;5014393;28;20459;-79
2022/10/16 05:52:07;;;;;;;2.43;2.10;;;17.20;99.90;;;;;;5014447;28;20566;-81
2022/10/16 05:54:38;;;;;;;2.67;2.47;;;17.20;99.90;;;;;;5013413;28;20546;-81
2022/10/16 05:57:05;;;;;;;2.07;1.97;;;17.20;99.90;;;;;;5014368;28;20462;-80
2022/10/16 05:59:33;;;;;;;2.00;1.90;;;17.20;99.90;;;;;;5013794;28;20477;-79
2022/10/16 06:02:00;;;;;;;1.70;1.60;;;17.20;99.90;;;;;;5016072;28;20793;-82
2022/10/16 06:04:28;;;;;;;1.93;1.83;;;17.20;99.90;;;;;;5017409;28;20470;-79
2022/10/16 06:06:55;;;;;;;1.53;1.43;;;17.20;99.90;;;;;;5014466;28;20475;-79
2022/10/16 06:09:22;;;;;;;1.77;1.57;;;17.20;99.90;;;;;;5014354;28;20536;-81
2022/10/16 06:11:51;;;;;;;2.30;2.10;;;17.20;99.90;;;;;;5014482;28;20468;-81
2022/10/16 06:14:18;;;;;;;1.90;1.80;;;17.30;99.90;;;;;;5014368;28;20800;-79
2022/10/16 06:16:45;;;;;;;2.67;2.47;;;17.20;99.90;;;;;;5013658;28;20489;-79
2022/10/16 06:19:13;;;;;;;3.10;2.80;;;17.30;99.90;;;;;;5014344;28;20532;-81
2022/10/16 06:21:40;;;;;;;3.30;3.00;;;17.30;99.90;;;;;;5012731;28;20473;-79
2022/10/16 06:24:07;;;;;;;2.87;2.67;;;17.30;99.90;;;;;;5014051;28;20557;-79
2022/10/16 06:26:35;;;;;;;3.90;3.60;;;17.30;99.90;;;;;;5014401;28;20494;-79
2022/10/16 06:29:03;;;;;;;3.87;3.50;;;17.30;99.90;;;;;;5014029;28;20955;-78
2022/10/16 06:31:33;;;;;;;3.70;3.40;;;17.30;99.90;;;;;;5014144;28;20599;-81
2022/10/16 06:34:00;;;;;;;2.73;2.53;;;17.30;99.90;;;;;;5013841;28;20479;-81
2022/10/16 06:36:28;;;;;;;3.80;3.50;;;17.30;99.90;;;;;;5013468;28;20536;-80
2022/10/16 06:38:55;;;;;;;3.77;3.47;;;17.30;99.90;;;;;;5014068;28;20468;-79
2022/10/16 06:41:23;;;;;;;3.60;3.30;;;17.30;99.90;;;;;;5013656;28;20480;-80
2022/10/16 06:43:51;;;;;;;2.73;2.53;;;17.30;99.90;;;;;;5013283;28;20494;-78
2022/10/16 06:46:23;;;;;;;2.30;2.10;;;17.40;99.90;;;;;;5013556;28;20615;-78
2022/10/16 06:48:50;;;;;;;3.00;2.77;;;17.40;99.90;;;;;;5013046;28;20451;-79
2022/10/16 06:51:19;;;;;;;4.13;2.40;;;17.40;99.90;;;;;;5014058;28;20542;-79
2022/10/16 06:53:49;;;;;;;2.10;2.00;;;17.40;99.90;;;;;;5012535;28;20468;-79
2022/10/16 06:56:18;;;;;;;2.13;2.03;;;17.40;99.90;;;;;;5003869;28;20476;-82
2022/10/16 06:58:45;;;;;;;2.47;2.27;;;17.40;99.90;;;;;;5013055;28;20468;-80
2022/10/16 07:01:14;;;;;;;2.43;2.23;;;17.50;99.90;;;;;;5012788;28;20475;-81
2022/10/16 07:03:44;;;;;;;2.33;2.23;;;17.50;99.90;;;;;;5013560;28;20471;-80
2022/10/16 07:06:13;;;;;;;2.33;2.13;;;17.40;99.90;;;;;;5013383;28;20472;-81
2022/10/16 07:08:42;;;;;;;3.17;2.87;;;17.50;99.90;;;;;;5013531;28;20531;-78
2022/10/16 07:11:11;;;;;;;2.10;2.00;;;17.50;99.90;;;;;;5013719;28;20535;-78
2022/10/16 07:13:40;;;;;;;2.13;1.93;;;17.50;99.90;;;;;;5012676;28;20461;-78
2022/10/16 07:16:08;;;;;;;2.10;2.00;;;17.50;99.90;;;;;;5013554;28;20466;-79
2022/10/16 07:18:57;;;;;;;2.03;1.67;;;17.60;99.90;;;;;;5003978;28;20453;-82
2022/10/16 07:21:25;;;;;;;2.40;2.20;;;17.60;99.90;;;;;;5011981;28;20509;-79
2022/10/16 07:23:52;;;;;;;2.60;2.40;;;17.70;99.90;;;;;;5017196;28;20487;-81
2022/10/16 07:26:19;;;;;;;3.60;2.03;;;17.70;99.90;;;;;;5015891;28;20472;-81
2022/10/16 07:28:47;;;;;;;2.10;2.00;;;17.70;99.90;;;;;;5016778;28;20490;-80
2022/10/16 07:31:16;;;;;;;1.97;1.87;;;17.70;99.90;;;;;;5017026;28;20571;-80
2022/10/16 07:33:44;;;;;;;1.80;1.70;;;17.80;99.90;;;;;;5016286;28;20483;-77
2022/10/16 07:36:13;;;;;;;2.43;2.20;;;17.80;99.90;;;;;;5016553;28;20549;-77
2022/10/16 07:38:42;;;;;;;3.70;2.40;;;17.90;99.90;;;;;;5006561;28;20485;-78
2022/10/16 07:41:12;;;;;;;1.50;1.40;;;17.90;99.90;;;;;;5016130;28;21062;-78
2022/10/16 07:46:28;;;;;;;1.90;1.77;;;18.00;99.90;;;;;;5016904;28;20872;-78
2022/10/16 07:48:55;;;;;;;1.90;1.80;;;18.00;99.90;;;;;;5016448;28;20527;-78
2022/10/16 07:51:27;;;;;;;2.27;2.07;;;18.00;99.90;;;;;;5016929;28;20469;-79
2022/10/16 07:53:54;;;;;;;2.70;1.93;;;18.10;99.90;;;;;;5016055;28;20460;-80
2022/10/16 07:56:22;;;;;;;1.70;1.60;;;18.10;99.90;;;;;;5016555;28;20477;-81
2022/10/16 07:58:50;;;;;;;1.90;1.73;;;18.10;99.90;;;;;;5014443;28;20504;-80
2022/10/16 08:01:18;;;;;;;2.70;1.63;;;18.20;99.90;;;;;;5016848;28;20493;-81
2022/10/16 08:03:46;;;;;;;2.13;2.03;;;18.20;99.90;;;;;;5015727;28;20484;-81
2022/10/16 08:06:14;;;;;;;5.37;4.87;;;18.20;99.90;;;;;;5011593;28;20969;-80
2022/10/16 08:08:44;;;;;;;3.47;3.17;;;18.20;99.90;;;;;;5026801;28;20955;-80
2022/10/16 08:11:17;;;;;;;5.57;3.77;;;18.20;99.90;;;;;;5016438;28;20515;-79
2022/10/16 08:13:44;;;;;;;4.20;3.37;;;18.20;99.90;;;;;;5016592;28;20471;-81
2022/10/16 08:16:11;;;;;;;4.00;3.70;;;18.20;99.90;;;;;;5015838;28;20536;-79
2022/10/16 08:18:41;;;;;;;4.83;4.40;;;18.30;99.90;;;;;;5013543;28;20476;-81
2022/10/16 08:21:14;;;;;;;3.90;3.60;;;18.30;99.90;;;;;;5023993;28;20464;-81
2022/10/16 08:23:43;;;;;;;4.43;4.07;;;18.30;99.90;;;;;;5016422;28;20476;-82
2022/10/16 08:26:10;;;;;;;5.77;4.33;;;18.30;99.90;;;;;;5015941;28;20494;-79
2022/10/16 08:28:39;;;;;;;4.30;3.60;;;18.40;99.90;;;;;;5016016;28;20480;-81
2022/10/16 08:31:08;;;;;;;2.90;2.70;;;18.40;99.90;;;;;;5004941;28;20476;-80
2022/10/16 08:33:35;;;;;;;3.73;3.30;;;18.40;99.90;;;;;;5016992;28;21043;-82
2022/10/16 08:36:06;;;;;;;2.83;2.43;;;18.40;99.90;;;;;;5007109;28;20807;-79
2022/10/16 08:38:34;;;;;;;2.30;2.10;;;18.50;99.90;;;;;;5018070;28;20484;-80
2022/10/16 08:41:20;;;;;;;7.10;5.63;;;18.60;99.90;;;;;;5013349;28;20485;-80
2022/10/16 08:44:10;;;;;;;4.83;4.43;;;18.50;99.90;;;;;;5016570;28;20472;-79
2022/10/16 08:46:46;;;;;;;7.87;6.00;;;18.50;99.90;;;;;;5016684;28;20472;-80
2022/10/16 08:49:15;;;;;;;4.90;4.50;;;18.50;99.90;;;;;;5015839;28;20476;-82
2022/10/16 08:51:43;;;;;;;3.13;2.93;;;18.50;99.90;;;;;;5016066;28;20520;-81
2022/10/16 08:54:23;;;;;;;3.10;2.73;;;18.60;99.90;;;;;;5015663;28;20508;-82
2022/10/16 08:56:53;;;;;;;4.90;3.80;;;18.50;99.90;;;;;;5014639;28;20935;-79
2022/10/16 08:59:24;;;;;;;2.50;1.90;;;18.60;99.90;;;;;;5016097;28;20528;-79
2022/10/16 09:01:52;;;;;;;2.53;2.33;;;18.60;99.90;;;;;;5014960;28;20477;-79
2022/10/16 09:04:52;;;;;;;2.73;2.50;;;18.60;99.90;;;;;;5016666;28;20499;-81
2022/10/16 09:07:26;;;;;;;3.50;3.20;;;18.60;99.90;;;;;;5012511;28;20469;-81
2022/10/16 09:10:11;;;;;;;1.60;1.50;;;18.70;99.90;;;;;;5015675;28;20472;-79
2022/10/16 09:12:46;;;;;;;2.37;1.70;;;18.70;99.90;;;;;;5015560;28;20539;-78
2022/10/16 09:15:24;;;;;;;2.73;1.50;;;18.70;99.90;;;;;;5015472;28;20480;-79
2022/10/16 09:18:01;;;;;;;1.80;1.70;;;18.80;99.90;;;;;;5014843;28;20481;-82
2022/10/16 09:20:33;;;;;;;2.07;1.87;;;18.80;99.90;;;;;;5015456;28;20528;-82
2022/10/16 09:23:17;;;;;;;2.13;1.70;;;18.90;99.90;;;;;;5014769;28;20527;-82
2022/10/16 09:25:48;;;;;;;4.80;4.30;;;18.90;99.90;;;;;;5015111;28;20492;-81
2022/10/16 09:28:17;;;;;;;6.80;6.17;;;18.90;99.90;;;;;;5015527;28;20475;-82
2022/10/16 09:30:45;;;;;;;5.00;4.60;;;19.00;99.90;;;;;;5014784;28;20540;-78
2022/10/16 09:33:15;;;;;;;5.20;4.70;;;19.00;99.90;;;;;;5015172;28;20550;-79
2022/10/16 09:35:45;;;;;;;3.87;3.47;;;19.10;99.90;;;;;;5014564;28;20539;-79
2022/10/16 09:38:31;;;;;;;3.77;3.47;;;19.10;99.90;;;;;;5014858;28;20464;-79
2022/10/16 09:40:59;;;;;;;2.83;2.63;;;19.20;99.90;;;;;;5014412;28;21459;-79
2022/10/16 09:43:33;;;;;;;3.70;2.53;;;19.20;99.90;;;;;;5014534;28;20563;-79
2022/10/16 09:46:02;;;;;;;3.50;2.87;;;19.30;99.90;;;;;;5013810;28;20473;-79
2022/10/16 09:48:34;;;;;;;3.23;2.93;;;19.30;99.90;;;;;;5015766;28;20496;-79
2022/10/16 09:51:04;;;;;;;2.97;2.43;;;19.30;99.90;;;;;;5007476;28;20461;-79
2022/10/16 09:53:41;;;;;;;2.40;2.20;;;19.40;99.90;;;;;;5016633;28;20537;-79
2022/10/16 09:56:12;;;;;;;3.50;3.10;;;19.40;99.90;;;;;;5019234;28;20549;-79
2022/10/16 09:58:56;;;;;;;4.23;3.80;;;19.40;99.90;;;;;;5018497;28;20963;-79
2022/10/16 10:01:27;;;;;;;4.10;3.80;;;19.40;99.90;;;;;;5020445;28;20465;-80
2022/10/16 10:04:00;;;;;;;4.23;3.20;;;19.50;99.90;;;;;;5023166;28;20473;-79
2022/10/16 10:06:32;;;;;;;4.00;3.70;;;19.50;99.90;;;;;;5025294;28;20493;-78
2022/10/16 10:09:03;;;;;;;4.17;3.77;;;19.50;99.90;;;;;;5025104;28;20507;-78
2022/10/16 10:11:42;;;;;;;3.30;3.00;;;19.60;99.90;;;;;;5023353;28;20480;-79
2022/10/16 10:14:19;;;;;;;2.80;2.60;;;19.60;99.90;;;;;;5022292;28;20480;-79
2022/10/16 10:16:46;;;;;;;4.30;3.40;;;19.60;99.90;;;;;;5028649;28;20473;-82
2022/10/16 10:19:16;;;;;;;5.80;5.20;;;19.70;99.90;;;;;;5024427;28;20469;-80
2022/10/16 10:21:43;;;;;;;5.10;4.60;;;19.70;99.90;;;;;;5025916;28;20958;-82
2022/10/16 10:24:13;;;;;;;4.17;3.03;;;19.70;99.90;;;;;;5028590;28;20472;-82
2022/10/16 10:26:49;;;;;;;5.40;4.90;;;19.70;99.90;;;;;;5029522;28;20465;-80
2022/10/16 10:29:31;;;;;;;5.57;4.77;;;19.80;99.90;;;;;;5017296;28;20456;-79
2022/10/16 10:32:09;;;;;;;3.37;3.00;;;19.80;99.90;;;;;;5005752;28;20478;-78
2022/10/16 10:34:52;;;;;;;3.33;2.67;;;19.80;99.90;;;;;;5006180;28;20461;-82
2022/10/16 10:37:31;;;;;;;4.90;4.50;;;19.80;99.90;;;;;;5006815;28;20458;-78
2022/10/16 10:40:07;;;;;;;4.10;3.67;;;19.70;99.90;;;;;;5004787;28;20503;-78
2022/10/16 10:42:42;;;;;;;4.20;2.90;;;19.70;99.90;;;;;;5015754;28;20479;-81
2022/10/16 10:45:38;;;;;;;4.80;3.53;;;19.70;99.90;;;;;;5004832;28;20529;-80
2022/10/16 10:48:23;;;;;;;3.33;2.83;;;19.70;99.90;;;;;;4993180;28;20518;-81
2022/10/16 10:50:54;;;;;;;5.17;4.67;;;19.70;99.90;;;;;;4999346;28;20525;-80
2022/10/16 10:53:32;;;;;;;10.37;5.57;;;19.70;99.90;;;;;;5000290;28;20470;-82
2022/10/16 10:56:10;;;;;;;5.33;3.40;;;19.80;99.90;;;;;;4999141;28;20536;-82
2022/10/16 10:59:09;;;;;;;3.23;3.00;;;19.80;99.90;;;;;;4999824;28;20504;-81
2022/10/16 11:01:46;;;;;;;2.93;2.50;;;19.80;99.90;;;;;;5001516;28;20463;-82
2022/10/16 11:04:33;;;;;;;3.80;3.50;;;19.80;99.90;;;;;;5001824;28;20469;-82
2022/10/16 11:07:05;;;;;;;2.60;2.40;;;19.90;99.90;;;;;;5001327;28;20524;-81
2022/10/16 11:09:39;;;;;;;3.10;2.80;;;19.90;99.90;;;;;;5001296;28;20509;-81
2022/10/16 11:12:12;;;;;;;3.30;3.00;;;20.00;99.90;;;;;;5001383;28;20465;-82
2022/10/16 11:14:45;;;;;;;2.13;1.93;;;20.10;99.90;;;;;;4999630;28;20508;-82
2022/10/16 11:17:24;;;;;;;2.10;1.60;;;20.10;99.90;;;;;;5001804;28;20757;-81
2022/10/16 11:19:56;;;;;;;2.50;1.37;;;20.20;99.90;;;;;;4998089;28;20576;-81
2022/10/16 11:22:32;;;;;;;2.33;2.13;;;20.20;99.90;;;;;;5000886;28;20926;-78
2022/10/16 11:25:06;;;;;;;4.27;3.97;;;20.30;99.90;;;;;;5007634;28;20862;-80
2022/10/16 11:27:56;;;;;;;6.80;5.47;;;20.30;99.90;;;;;;5019747;28;20500;-82
2022/10/16 11:30:29;;;;;;;3.60;3.33;;;20.40;99.90;;;;;;5017893;28;20539;-82
2022/10/16 11:33:21;;;;;;;3.40;3.10;;;20.40;99.90;;;;;;5018820;28;20483;-82
2022/10/16 11:35:54;;;;;;;4.17;3.80;;;20.40;99.90;;;;;;5018070;28;20847;-80
2022/10/16 11:38:30;;;;;;;4.50;3.60;;;20.40;99.90;;;;;;5019439;28;20494;-80
2022/10/16 11:41:14;;;;;;;4.10;3.80;;;20.30;99.90;;;;;;5017993;28;20482;-78
2022/10/16 11:43:52;;;;;;;4.10;3.57;;;20.30;99.90;;;;;;5018303;28;20542;-79
2022/10/16 11:46:21;;;;;;;3.20;2.90;;;20.30;99.90;;;;;;5017346;28;20467;-82
2022/10/16 11:52:12;;;;;;;6.17;5.57;;;20.20;99.90;;;;;;4995868;28;20463;-79
2022/10/16 11:54:50;;;;;;;5.50;5.00;;;20.10;99.90;;;;;;4986004;28;20578;-81
2022/10/16 11:57:24;;;;;;;5.40;4.57;;;20.10;99.90;;;;;;5009064;28;20480;-81
2022/10/16 12:00:00;;;;;;;4.07;3.77;;;20.10;99.90;;;;;;5016665;28;20493;-82
2022/10/16 12:02:41;;;;;;;3.80;2.97;;;20.00;99.90;;;;;;5017578;28;20569;-81
2022/10/16 12:05:21;;;;;;;4.50;2.37;;;20.00;99.90;;;;;;5017122;28;21192;-80
2022/10/16 12:08:00;;;;;;;3.17;2.83;;;20.00;99.90;;;;;;5016182;28;20543;-80
2022/10/16 12:10:31;;;;;;;3.43;3.23;;;20.00;99.90;;;;;;5017100;28;20946;-82
2022/10/16 12:12:59;;;;;;;3.20;2.93;;;20.00;99.90;;;;;;5026841;28;20505;-78
2022/10/16 12:15:27;;;;;;;2.80;2.13;;;19.90;99.90;;;;;;5022028;28;20465;-81
2022/10/16 12:17:55;;;;;;;3.57;3.27;;;19.90;99.90;;;;;;5008504;28;20552;-79
2022/10/16 12:20:32;;;;;;;5.80;4.13;;;19.90;99.90;;;;;;5016518;28;20485;-78
2022/10/16 12:23:02;;;;;;;2.37;2.17;;;19.90;99.90;;;;;;5015989;28;20484;-78
2022/10/16 12:25:31;;;;;;;1.90;1.80;;;19.90;99.90;;;;;;5015879;28;20483;-79
2022/10/16 12:28:03;;;;;;;2.90;2.10;;;19.90;99.90;;;;;;5015836;28;20837;-81
2022/10/16 12:30:38;;;;;;;2.17;2.07;;;19.90;99.90;;;;;;5016437;28;20477;-80
2022/10/16 12:33:18;;;;;;;2.70;2.50;;;19.90;99.90;;;;;;5014792;28;20501;-82
2022/10/16 12:35:47;;;;;;;2.43;2.23;;;19.90;99.90;;;;;;5017526;28;21030;-78
2022/10/16 12:38:19;;;;;;;3.70;3.10;;;19.90;99.90;;;;;;5015849;28;20978;-81
2022/10/16 12:40:55;;;;;;;4.23;3.83;;;19.90;99.90;;;;;;5016496;28;20483;-82
2022/10/16 12:43:32;;;;;;;2.40;2.20;;;20.00;99.90;;;;;;5015979;28;20539;-81
2022/10/16 12:46:05;;;;;;;2.10;1.90;;;20.00;99.90;;;;;;5015282;28;20487;-81
2022/10/16 12:48:32;;;;;;;5.20;2.23;;;20.00;99.90;;;;;;5016128;28;20470;-78
2022/10/16 12:57:11;;;;;;;2.30;2.10;;;20.00;99.90;;;;;;5005740;28;20540;-81
2022/10/16 12:59:44;;;;;;;2.93;2.30;;;20.00;99.90;;;;;;5016064;28;20473;-79
2022/10/16 13:02:41;;;;;;;2.93;2.33;;;20.00;99.90;;;;;;5015783;28;20469;-82
2022/10/16 13:05:23;;;;;;;3.13;2.53;;;20.00;99.90;;;;;;5015296;28;20977;-82
2022/10/16 13:08:01;;;;;;;3.03;2.83;;;20.00;99.90;;;;;;5015151;28;20471;-79
2022/10/16 13:10:37;;;;;;;2.37;2.10;;;20.00;99.90;;;;;;5015388;28;20484;-79
2022/10/16 13:13:42;;;;;;;2.40;1.70;;;20.00;99.90;;;;;;5018263;28;20481;-78
2022/10/16 13:16:17;;;;;;;3.73;1.90;;;20.00;99.90;;;;;;5015683;28;20472;-81
2022/10/16 13:18:57;;;;;;;2.70;2.00;;;20.00;99.90;;;;;;5015811;28;20561;-78
2022/10/16 13:21:38;;;;;;;1.40;1.30;;;20.00;99.90;;;;;;5014359;28;20903;-81